Hlavní strana
METAR-TAF:

METAR-TAF

Letiště :

Newark-Heath Airport

Newark, Ohio, Spojené státy americké

zeměpisná šířka: 40-01-22N, zeměpisná délka: 082-27-45W, výška: 269 m

Aktuální stav počasí

Zpráva byla vytvořena před 37 minutami, v 23:54 UTC
Severoseverozápadní vítr 12 kt s nárazy do 18 kt
Teplota 7°C
Vlhkost vzduchu 70%
Tlak 1011 hPa
Viditelnost: 16.1 km
Skoro jasno ve výšce 4300 ft
Skoro jasno ve výšce 12000 ft

METAR: KVTA 202354Z AUTO 33012G18KT 10SM FEW043 FEW120 07/02 A2986 RMK AO2 PK WND 30033/2257 RAE26 SLP112 P0001 60001 T00720022 10167 20072 53042

Čas: 20:31 (00:31 UTC)


TAF: chybějící

Stav a předpovědi počasí z více než 4 000 letišť (zprávy METAR a TAF).

Červené a žluté tečky na mapě představují dostupné meteorologické stanice.

Když kurzor umístíte na tečku, zobrazí se název stanice.

Pak kliknutím zobrazíte stav a předpověď počasí.

Chcete-li změnit mapu, kliknutím na zelené tlačítko se znaménkem +mapu přiblížíte, kliknutím na zelené tlačítko se znaménkem – mapu oddálíte a kliknutím na zelené šipky přejdete na sousední mapy.


METAR-TAF: